< < Back
Terminal Aerodrome Forecast


Current Version              Previous Versions:   1  2  3  4  5  6  7  8  9  

Terminal Aerodrome Forecast

314
FTUS44 KMRX 030520
TAFTYS
TAF
KTYS 030520Z 0306/0406 00000KT P6SM SKC
     FM031500 25005KT P6SM FEW050=

Latest METAR

437
SAUS80 KWBC 040300 CCA
MTRTYS
METAR KTYS 040253Z 00000KT 10SM CLR 26/17 A2997 RMK AO2 SLP135 T02560172
53008 $


USA.gov is the U.S. government's official web portal to all federal, state and local government web resources and services.